Time;durP1;ratioP1;P1;durP2;ratioP2;P2;SDS_P1;SDS_P2;PMS_P1;PMS_P2;Temp;Humidity;BMP_temperature;BMP_pressure;BME280_temperature;BME280_humidity;BME280_pressure;Samples;Min_cycle;Max_cycle;Signal;HPM_P1;HPM_P2
2022/08/08 00:00:16;;;;;;;1.67;1.48;;;;;;;;;;5006314;28;20130;-71
2022/08/08 00:02:45;;;;;;;1.60;1.25;;;;;;;;;;5010908;28;20050;-71
2022/08/08 00:05:17;;;;;;;2.08;1.65;;;;;;;;;;5005779;28;20058;-71
2022/08/08 00:07:49;;;;;;;2.08;1.40;;;;;;;;;;5007434;28;20061;-71
2022/08/08 00:10:22;;;;;;;2.38;1.30;;;;;;;;;;5008751;28;20049;-71
2022/08/08 00:13:02;;;;;;;3.67;1.27;;;;;;;;;;5007077;28;20033;-71
2022/08/08 00:15:33;;;;;;;1.77;1.10;;;;;;;;;;5011495;28;20512;-71
2022/08/08 00:18:02;;;;;;;1.60;1.40;;;;;;;;;;5011910;28;20045;-71
2022/08/08 00:20:51;;;;;;;2.47;1.30;;;;;;;;;;5010547;28;20041;-71
2022/08/08 00:23:39;;;;;;;6.10;1.50;;;;;;;;;;5004575;28;20054;-71
2022/08/08 00:26:07;;;;;;;1.80;1.52;;;;;;;;;;5003682;28;20073;-71
2022/08/08 00:28:36;;;;;;;2.70;1.60;;;;;;;;;;5010485;28;20046;-71
2022/08/08 00:31:03;;;;;;;1.40;1.30;;;;;;;;;;5003368;28;20052;-71
2022/08/08 00:33:32;;;;;;;3.15;1.33;;;;;;;;;;5011611;28;20046;-71
2022/08/08 00:36:22;;;;;;;3.17;1.40;;;;;;;;;;5012928;28;20056;-71
2022/08/08 00:38:50;;;;;;;3.17;1.40;;;;;;;;;;5013615;28;20050;-71
2022/08/08 00:41:35;;;;;;;3.22;1.27;;;;;;;;;;5013735;28;20050;-71
2022/08/08 00:44:28;;;;;;;2.20;1.27;;;;;;;;;;5014590;28;20116;-71
2022/08/08 00:47:13;;;;;;;1.63;1.40;;;;;;;;;;5014225;28;20049;-71
2022/08/08 00:49:57;;;;;;;3.40;1.40;;;;;;;;;;5014553;28;20104;-71
2022/08/08 00:52:42;;;;;;;3.33;1.40;;;;;;;;;;5014581;28;20044;-71
2022/08/08 00:55:20;;;;;;;1.92;1.40;;;;;;;;;;5013916;28;20049;-71
2022/08/08 00:57:49;;;;;;;4.07;1.40;;;;;;;;;;5014252;28;20038;-71
2022/08/08 01:00:17;;;;;;;2.35;1.38;;;;;;;;;;5013752;28;20041;-71
2022/08/08 01:02:43;;;;;;;1.65;1.40;;;;;;;;;;5009084;28;20042;-71
2022/08/08 01:05:12;;;;;;;1.50;1.30;;;;;;;;;;5001872;28;20535;-71
2022/08/08 01:07:44;;;;;;;2.35;1.20;;;;;;;;;;5020231;28;20107;-71
2022/08/08 01:10:30;;;;;;;2.45;1.48;;;;;;;;;;5014477;28;20057;-71
2022/08/08 01:13:15;;;;;;;1.55;1.45;;;;;;;;;;5033115;28;20045;-71
2022/08/08 01:15:58;;;;;;;1.65;1.33;;;;;;;;;;5020046;28;20037;-71
2022/08/08 01:18:27;;;;;;;1.67;1.48;;;;;;;;;;5018488;28;20049;-71
2022/08/08 01:21:12;;;;;;;1.63;1.52;;;;;;;;;;5018235;28;20508;-71
2022/08/08 01:23:56;;;;;;;1.65;1.50;;;;;;;;;;5018456;28;20076;-71
2022/08/08 01:26:41;;;;;;;1.67;1.35;;;;;;;;;;5018401;28;20115;-71
2022/08/08 01:29:19;;;;;;;3.15;1.63;;;;;;;;;;5018203;28;20053;-71
2022/08/08 01:32:04;;;;;;;1.60;1.20;;;;;;;;;;5018090;28;20042;-71
2022/08/08 01:34:49;;;;;;;6.60;1.63;;;;;;;;;;5017774;28;20045;-71
2022/08/08 01:37:21;;;;;;;1.85;1.20;;;;;;;;;;5018609;28;20074;-71
2022/08/08 01:39:58;;;;;;;1.80;1.30;;;;;;;;;;5017973;28;20100;-71
2022/08/08 01:42:33;;;;;;;1.73;1.27;;;;;;;;;;5018234;28;20050;-71
2022/08/08 01:45:26;;;;;;;1.95;1.40;;;;;;;;;;5017289;28;20081;-71
2022/08/08 01:48:10;;;;;;;2.45;1.40;;;;;;;;;;5014564;28;20062;-71
2022/08/08 01:50:49;;;;;;;2.38;1.58;;;;;;;;;;5018038;28;20125;-71
2022/08/08 01:53:35;;;;;;;1.50;1.40;;;;;;;;;;5017904;28;20034;-71
2022/08/08 01:56:10;;;;;;;1.48;1.38;;;;;;;;;;5017835;28;20168;-71
2022/08/08 01:58:36;;;;;;;1.77;1.45;;;;;;;;;;5017552;28;20116;-71
2022/08/08 02:01:11;;;;;;;3.53;1.65;;;;;;;;;;5016956;28;20056;-71
2022/08/08 02:03:49;;;;;;;4.15;1.48;;;;;;;;;;5016524;28;20493;-71
2022/08/08 02:06:40;;;;;;;2.85;1.35;;;;;;;;;;5017088;28;20049;-71
2022/08/08 02:09:23;;;;;;;1.60;1.50;;;;;;;;;;5017065;28;20521;-71
2022/08/08 02:11:49;;;;;;;2.97;1.63;;;;;;;;;;5017669;28;20046;-71
2022/08/08 02:14:18;;;;;;;3.47;1.50;;;;;;;;;;5016693;28;20180;-71
2022/08/08 02:17:03;;;;;;;1.30;1.17;;;;;;;;;;5017087;28;20073;-71
2022/08/08 02:19:32;;;;;;;4.93;1.73;;;;;;;;;;5016638;28;20069;-71
2022/08/08 02:24:51;;;;;;;1.52;1.35;;;;;;;;;;5016255;28;20076;-71
2022/08/08 02:27:18;;;;;;;2.50;1.50;;;;;;;;;;5016425;28;20048;-71
2022/08/08 02:29:44;;;;;;;1.73;1.60;;;;;;;;;;5015926;28;20049;-71
2022/08/08 02:32:29;;;;;;;2.10;1.50;;;;;;;;;;5016792;28;20132;-71
2022/08/08 02:35:01;;;;;;;1.70;1.40;;;;;;;;;;5016719;28;20168;-71
2022/08/08 02:37:46;;;;;;;1.67;1.20;;;;;;;;;;5017087;28;20051;-71
2022/08/08 02:40:16;;;;;;;4.53;1.50;;;;;;;;;;5016565;28;20038;-71
2022/08/08 02:42:54;;;;;;;1.52;1.42;;;;;;;;;;5016566;28;20046;-71
2022/08/08 02:45:32;;;;;;;2.05;1.55;;;;;;;;;;5016437;28;20049;-71
2022/08/08 02:48:05;;;;;;;2.75;1.40;;;;;;;;;;5016213;28;20049;-71
2022/08/08 02:50:49;;;;;;;1.92;1.45;;;;;;;;;;5016103;28;20556;-71
2022/08/08 02:53:34;;;;;;;5.82;2.35;;;;;;;;;;5015992;28;20500;-71
2022/08/08 02:56:03;;;;;;;1.50;1.35;;;;;;;;;;5016183;28;20113;-71
2022/08/08 02:58:29;;;;;;;1.98;1.42;;;;;;;;;;5015880;28;20034;-71
2022/08/08 03:01:18;;;;;;;2.33;1.40;;;;;;;;;;5015891;28;20053;-71
2022/08/08 03:04:02;;;;;;;1.45;1.35;;;;;;;;;;4978934;28;20042;-71
2022/08/08 03:06:29;;;;;;;2.47;1.35;;;;;;;;;;5016575;28;20053;-71
2022/08/08 03:09:27;;;;;;;1.42;1.30;;;;;;;;;;5015714;28;20065;-71
2022/08/08 03:11:53;;;;;;;3.10;1.42;;;;;;;;;;4972864;28;20084;-71
2022/08/08 03:14:22;;;;;;;1.88;1.13;;;;;;;;;;5015262;28;20041;-71
2022/08/08 03:16:48;;;;;;;2.85;1.52;;;;;;;;;;5015081;28;20045;-71
2022/08/08 03:19:28;;;;;;;2.08;1.60;;;;;;;;;;5015415;28;20117;-71
2022/08/08 03:21:54;;;;;;;2.20;1.43;;;;;;;;;;5015351;28;20033;-71
2022/08/08 03:24:20;;;;;;;1.90;1.50;;;;;;;;;;5015496;28;20037;-71
2022/08/08 03:26:52;;;;;;;2.15;1.52;;;;;;;;;;5015570;28;20050;-71
2022/08/08 03:29:23;;;;;;;1.83;1.67;;;;;;;;;;5015262;28;20125;-71
2022/08/08 03:34:35;;;;;;;2.63;1.77;;;;;;;;;;5014611;28;20045;-71
2022/08/08 03:37:01;;;;;;;2.95;1.48;;;;;;;;;;5014874;28;20108;-71
2022/08/08 03:39:27;;;;;;;2.47;1.58;;;;;;;;;;5015040;28;20038;-71
2022/08/08 03:41:54;;;;;;;2.33;1.42;;;;;;;;;;5014714;28;20092;-71
2022/08/08 03:44:20;;;;;;;1.58;1.48;;;;;;;;;;5015163;28;20575;-71
2022/08/08 03:46:47;;;;;;;3.55;1.48;;;;;;;;;;5015677;28;20116;-71
2022/08/08 03:49:17;;;;;;;2.08;1.35;;;;;;;;;;5014577;28;20137;-71
2022/08/08 03:51:43;;;;;;;1.55;1.45;;;;;;;;;;5014958;28;20041;-71
2022/08/08 03:54:10;;;;;;;2.78;1.40;;;;;;;;;;5015132;28;20066;-71
2022/08/08 03:56:36;;;;;;;1.70;1.55;;;;;;;;;;5014893;28;20046;-71
2022/08/08 03:59:02;;;;;;;3.33;1.60;;;;;;;;;;5014358;28;20072;-71
2022/08/08 04:01:35;;;;;;;3.30;1.50;;;;;;;;;;5013740;28;20049;-71
2022/08/08 04:04:01;;;;;;;2.88;1.75;;;;;;;;;;5013087;28;20038;-71
2022/08/08 04:06:28;;;;;;;3.55;1.80;;;;;;;;;;5013802;28;20053;-71
2022/08/08 04:08:54;;;;;;;2.35;1.45;;;;;;;;;;5013563;28;20068;-71
2022/08/08 04:11:20;;;;;;;1.42;1.33;;;;;;;;;;5014285;28;20087;-71
2022/08/08 04:13:46;;;;;;;2.63;1.70;;;;;;;;;;5013273;28;20072;-71
2022/08/08 04:16:13;;;;;;;4.47;1.80;;;;;;;;;;5013063;28;20050;-71
2022/08/08 04:18:39;;;;;;;2.80;1.63;;;;;;;;;;5013810;28;20077;-71
2022/08/08 04:21:05;;;;;;;3.90;1.70;;;;;;;;;;5012973;28;20164;-71
2022/08/08 04:23:31;;;;;;;5.40;2.22;;;;;;;;;;5013176;28;20045;-71
2022/08/08 04:25:57;;;;;;;3.72;1.75;;;;;;;;;;5013895;28;20080;-72
2022/08/08 04:28:23;;;;;;;2.63;1.90;;;;;;;;;;5014499;28;20049;-71
2022/08/08 04:30:50;;;;;;;5.05;2.13;;;;;;;;;;5009479;28;20148;-72
2022/08/08 04:33:16;;;;;;;3.80;1.90;;;;;;;;;;5015114;28;20040;-71
2022/08/08 04:35:42;;;;;;;2.30;1.90;;;;;;;;;;5015183;28;20567;-71
2022/08/08 04:38:08;;;;;;;2.60;1.88;;;;;;;;;;5024682;28;20041;-71
2022/08/08 04:40:34;;;;;;;3.15;1.60;;;;;;;;;;5021210;28;20033;-68
2022/08/08 04:43:00;;;;;;;1.98;1.77;;;;;;;;;;5018881;28;20439;-72
2022/08/08 04:45:27;;;;;;;4.50;2.08;;;;;;;;;;5025329;28;20091;-72
2022/08/08 04:47:53;;;;;;;2.65;1.92;;;;;;;;;;5027590;28;20119;-72
2022/08/08 04:50:19;;;;;;;6.47;1.88;;;;;;;;;;5017728;28;20121;-72
2022/08/08 04:52:45;;;;;;;6.57;2.30;;;;;;;;;;5017576;28;20057;-72
2022/08/08 04:55:12;;;;;;;3.17;1.80;;;;;;;;;;5018540;28;20050;-72
2022/08/08 04:57:38;;;;;;;3.50;1.80;;;;;;;;;;5018285;28;20045;-72
2022/08/08 05:00:05;;;;;;;2.53;1.85;;;;;;;;;;5017742;28;20042;-72
2022/08/08 05:02:31;;;;;;;6.80;1.90;;;;;;;;;;5017362;28;20037;-72
2022/08/08 05:04:58;;;;;;;2.00;1.90;;;;;;;;;;5017380;28;20034;-72
2022/08/08 05:07:24;;;;;;;2.03;1.80;;;;;;;;;;5018559;28;20050;-72
2022/08/08 05:09:50;;;;;;;4.30;1.75;;;;;;;;;;5017777;28;20034;-72
2022/08/08 05:12:16;;;;;;;2.65;1.90;;;;;;;;;;5017748;28;20034;-72
2022/08/08 05:14:43;;;;;;;2.92;1.63;;;;;;;;;;5017715;28;20042;-72
2022/08/08 05:17:09;;;;;;;2.08;1.92;;;;;;;;;;5017354;28;20045;-72
2022/08/08 05:19:36;;;;;;;3.08;1.70;;;;;;;;;;5017608;28;20045;-71
2022/08/08 05:22:03;;;;;;;3.72;2.00;;;;;;;;;;5017056;28;20053;-71
2022/08/08 05:24:30;;;;;;;4.93;1.90;;;;;;;;;;5017495;28;20092;-71
2022/08/08 05:26:56;;;;;;;3.50;1.92;;;;;;;;;;5017115;28;20496;-72
2022/08/08 05:29:22;;;;;;;2.33;2.00;;;;;;;;;;5017200;28;20497;-72
2022/08/08 05:31:48;;;;;;;2.88;2.25;;;;;;;;;;5016853;28;20035;-72
2022/08/08 05:34:24;;;;;;;7.75;2.20;;;;;;;;;;5017119;28;20121;-72
2022/08/08 05:36:52;;;;;;;3.75;2.00;;;;;;;;;;5017322;28;20049;-72
2022/08/08 05:39:21;;;;;;;4.25;2.03;;;;;;;;;;5017655;28;20498;-72
2022/08/08 05:41:50;;;;;;;5.57;2.10;;;;;;;;;;5016982;28;20064;-72
2022/08/08 05:44:19;;;;;;;2.67;2.20;;;;;;;;;;5016737;28;20038;-72
2022/08/08 05:46:46;;;;;;;2.63;1.88;;;;;;;;;;5016622;28;20538;-72
2022/08/08 05:49:13;;;;;;;3.30;2.33;;;;;;;;;;5017261;28;20077;-72
2022/08/08 05:51:40;;;;;;;4.10;2.25;;;;;;;;;;5017387;28;20038;-72
2022/08/08 05:54:07;;;;;;;3.65;2.00;;;;;;;;;;5016990;28;20045;-72
2022/08/08 05:56:37;;;;;;;3.13;2.17;;;;;;;;;;5016656;28;20046;-72
2022/08/08 05:59:05;;;;;;;7.13;2.20;;;;;;;;;;5017523;28;20073;-72
2022/08/08 06:01:32;;;;;;;3.58;2.22;;;;;;;;;;5017182;28;20044;-72
2022/08/08 06:04:01;;;;;;;6.68;2.17;;;;;;;;;;5017022;28;20042;-72
2022/08/08 06:06:29;;;;;;;4.13;1.95;;;;;;;;;;5016430;28;20056;-71
2022/08/08 06:08:57;;;;;;;5.07;2.15;;;;;;;;;;5016909;28;20037;-70
2022/08/08 06:11:24;;;;;;;4.70;2.28;;;;;;;;;;5016645;28;20050;-70
2022/08/08 06:13:50;;;;;;;3.00;2.00;;;;;;;;;;5016690;28;20034;-70
2022/08/08 06:16:17;;;;;;;5.32;2.10;;;;;;;;;;5016412;28;20042;-70
2022/08/08 06:18:43;;;;;;;4.63;2.15;;;;;;;;;;5016644;28;20076;-70
2022/08/08 06:21:10;;;;;;;2.22;1.90;;;;;;;;;;5016079;28;20492;-70
2022/08/08 06:23:36;;;;;;;5.18;2.20;;;;;;;;;;5016715;28;20431;-70
2022/08/08 06:26:04;;;;;;;6.35;2.50;;;;;;;;;;5015753;28;20492;-70
2022/08/08 06:28:30;;;;;;;5.18;2.10;;;;;;;;;;5016592;28;20049;-70
2022/08/08 06:31:01;;;;;;;5.25;2.13;;;;;;;;;;5017355;28;20045;-70
2022/08/08 06:33:30;;;;;;;5.32;2.33;;;;;;;;;;5016340;28;20060;-70
2022/08/08 06:35:57;;;;;;;3.45;2.45;;;;;;;;;;5016584;28;20057;-70
2022/08/08 06:38:27;;;;;;;3.65;2.50;;;;;;;;;;5016043;28;20504;-70
2022/08/08 06:40:55;;;;;;;2.45;2.25;;;;;;;;;;5017150;28;20100;-70
2022/08/08 06:43:22;;;;;;;3.58;2.50;;;;;;;;;;5016417;28;20044;-70
2022/08/08 06:45:48;;;;;;;2.80;2.40;;;;;;;;;;5015886;28;20049;-70
2022/08/08 06:48:15;;;;;;;4.88;2.92;;;;;;;;;;5015983;28;20054;-70
2022/08/08 06:50:42;;;;;;;3.30;2.22;;;;;;;;;;5015604;28;20524;-70
2022/08/08 06:53:08;;;;;;;4.40;2.47;;;;;;;;;;5015838;28;20501;-70
2022/08/08 06:55:35;;;;;;;3.65;2.10;;;;;;;;;;5015693;28;20073;-70
2022/08/08 06:58:01;;;;;;;3.40;2.60;;;;;;;;;;5015816;28;20054;-70
2022/08/08 07:00:31;;;;;;;2.60;2.25;;;;;;;;;;5014895;28;20068;-70
2022/08/08 07:02:59;;;;;;;4.40;2.83;;;;;;;;;;5014389;28;20500;-70
2022/08/08 07:05:26;;;;;;;2.50;2.30;;;;;;;;;;5014625;28;20068;-70
2022/08/08 07:08:00;;;;;;;5.93;2.80;;;;;;;;;;5015626;28;20046;-70
2022/08/08 07:10:31;;;;;;;6.05;2.72;;;;;;;;;;5015651;28;20107;-70
2022/08/08 07:13:05;;;;;;;2.72;2.40;;;;;;;;;;5015414;28;20574;-70
2022/08/08 07:15:40;;;;;;;2.97;2.63;;;;;;;;;;5015189;28;20053;-70
2022/08/08 07:18:08;;;;;;;5.35;2.60;;;;;;;;;;5014485;28;20100;-70
2022/08/08 07:20:38;;;;;;;4.07;2.75;;;;;;;;;;5014952;28;20068;-70
2022/08/08 07:23:05;;;;;;;2.92;2.72;;;;;;;;;;5014999;28;20050;-70
2022/08/08 07:25:33;;;;;;;5.43;3.03;;;;;;;;;;5015492;28;20049;-70
2022/08/08 07:28:26;;;;;;;4.18;3.25;;;;;;;;;;5014713;28;20041;-70
2022/08/08 07:30:53;;;;;;;6.20;2.78;;;;;;;;;;5012496;28;20042;-70
2022/08/08 07:33:22;;;;;;;6.18;2.78;;;;;;;;;;5015636;28;20046;-70
2022/08/08 07:35:48;;;;;;;3.38;2.67;;;;;;;;;;5015078;28;20515;-70
2022/08/08 07:38:16;;;;;;;5.18;2.85;;;;;;;;;;5015000;28;20049;-70
2022/08/08 07:40:44;;;;;;;3.40;2.70;;;;;;;;;;5014934;28;20038;-70
2022/08/08 07:43:12;;;;;;;4.90;2.90;;;;;;;;;;5014107;28;20045;-70
2022/08/08 07:45:39;;;;;;;4.10;3.13;;;;;;;;;;5014216;28;20038;-70
2022/08/08 07:48:06;;;;;;;2.90;2.70;;;;;;;;;;5014649;28;20054;-70
2022/08/08 07:50:33;;;;;;;4.07;2.83;;;;;;;;;;5008203;28;20042;-70
2022/08/08 07:53:03;;;;;;;6.30;2.45;;;;;;;;;;4995614;28;20096;-70
2022/08/08 07:55:29;;;;;;;2.90;2.60;;;;;;;;;;5007511;28;20108;-70
2022/08/08 07:58:11;;;;;;;4.68;2.60;;;;;;;;;;5014539;28;20065;-70
2022/08/08 08:00:43;;;;;;;6.15;2.80;;;;;;;;;;5011487;28;20045;-71
2022/08/08 08:03:09;;;;;;;5.88;2.85;;;;;;;;;;5014671;28;20496;-70
2022/08/08 08:05:42;;;;;;;4.57;2.70;;;;;;;;;;5012536;28;20049;-70
2022/08/08 08:08:18;;;;;;;4.28;2.60;;;;;;;;;;5007926;28;20101;-70
2022/08/08 08:10:45;;;;;;;6.43;2.97;;;;;;;;;;5014196;28;20122;-70
2022/08/08 08:13:20;;;;;;;4.18;2.58;;;;;;;;;;5013458;28;20048;-70
2022/08/08 08:15:48;;;;;;;5.93;2.72;;;;;;;;;;5013570;28;20054;-70
2022/08/08 08:18:15;;;;;;;4.90;3.20;;;;;;;;;;5014169;28;20089;-70
2022/08/08 08:20:41;;;;;;;3.40;1.92;;;;;;;;;;5014104;28;20034;-70
2022/08/08 08:23:07;;;;;;;2.05;1.70;;;;;;;;;;5010123;28;20033;-70
2022/08/08 08:25:33;;;;;;;2.38;1.50;;;;;;;;;;5012097;28;20147;-70
2022/08/08 08:28:00;;;;;;;4.50;1.95;;;;;;;;;;5010104;28;20500;-70
2022/08/08 08:30:26;;;;;;;3.78;1.75;;;;;;;;;;5014113;28;20046;-70
2022/08/08 08:32:52;;;;;;;4.10;1.98;;;;;;;;;;5013004;28;20030;-70
2022/08/08 08:35:19;;;;;;;3.60;1.80;;;;;;;;;;5000693;28;20103;-70
2022/08/08 08:37:45;;;;;;;3.85;2.05;;;;;;;;;;5004205;28;20050;-70
2022/08/08 08:40:13;;;;;;;2.03;1.70;;;;;;;;;;5013806;28;20049;-70
2022/08/08 08:42:40;;;;;;;1.55;1.38;;;;;;;;;;5014283;28;20033;-70
2022/08/08 08:45:06;;;;;;;1.52;1.40;;;;;;;;;;5013531;28;20038;-70
2022/08/08 08:47:34;;;;;;;3.95;1.40;;;;;;;;;;5014158;28;20527;-71
2022/08/08 08:50:00;;;;;;;3.70;1.65;;;;;;;;;;5014325;28;20079;-70
2022/08/08 08:52:26;;;;;;;3.65;1.73;;;;;;;;;;5014258;28;20510;-70
2022/08/08 08:54:56;;;;;;;4.45;1.48;;;;;;;;;;5014069;28;20048;-70
2022/08/08 08:57:22;;;;;;;1.50;1.40;;;;;;;;;;5014284;28;20073;-70
2022/08/08 08:59:49;;;;;;;1.40;1.30;;;;;;;;;;5014046;28;20077;-70
2022/08/08 09:02:19;;;;;;;1.60;1.50;;;;;;;;;;5013765;28;20120;-70
2022/08/08 09:04:47;;;;;;;1.55;1.45;;;;;;;;;;5014218;28;20120;-70
2022/08/08 09:07:14;;;;;;;2.58;1.40;;;;;;;;;;5013959;28;20158;-70
2022/08/08 09:09:43;;;;;;;2.08;1.58;;;;;;;;;;5013911;28;20053;-70
2022/08/08 09:12:10;;;;;;;1.73;1.50;;;;;;;;;;5014202;28;20042;-70
2022/08/08 09:14:36;;;;;;;3.38;1.63;;;;;;;;;;5013506;28;20046;-70
2022/08/08 09:17:02;;;;;;;3.33;1.48;;;;;;;;;;5014212;28;20054;-70
2022/08/08 09:19:29;;;;;;;2.75;1.75;;;;;;;;;;5013972;28;20046;-70
2022/08/08 09:21:55;;;;;;;2.97;1.52;;;;;;;;;;5014112;28;20045;-70
2022/08/08 09:24:22;;;;;;;2.13;1.27;;;;;;;;;;5017659;28;20071;-70
2022/08/08 09:26:54;;;;;;;4.25;1.70;;;;;;;;;;5000072;28;20084;-70
2022/08/08 09:29:22;;;;;;;2.38;1.42;;;;;;;;;;5015658;28;20042;-70
2022/08/08 09:31:55;;;;;;;1.63;1.48;;;;;;;;;;5021207;28;20033;-70
2022/08/08 09:34:24;;;;;;;2.97;1.40;;;;;;;;;;5021953;28;20555;-70
2022/08/08 09:36:54;;;;;;;3.38;1.30;;;;;;;;;;5022413;28;20127;-70
2022/08/08 09:39:20;;;;;;;3.03;1.55;;;;;;;;;;5014239;28;20125;-70
2022/08/08 09:42:00;;;;;;;3.65;1.67;;;;;;;;;;5020061;28;20034;-70
2022/08/08 09:44:35;;;;;;;1.67;1.38;;;;;;;;;;5030037;28;20038;-70
2022/08/08 09:47:05;;;;;;;3.20;1.52;;;;;;;;;;5016383;28;20915;-71
2022/08/08 09:49:32;;;;;;;2.33;1.58;;;;;;;;;;5025479;28;20038;-70
2022/08/08 09:51:58;;;;;;;3.47;1.60;;;;;;;;;;5017789;28;20053;-70
2022/08/08 09:54:30;;;;;;;2.85;1.63;;;;;;;;;;5024719;28;20045;-70
2022/08/08 09:57:01;;;;;;;2.35;1.70;;;;;;;;;;5016538;28;20100;-70
2022/08/08 09:59:28;;;;;;;4.65;1.80;;;;;;;;;;5020386;28;20068;-70
2022/08/08 10:01:55;;;;;;;4.43;1.80;;;;;;;;;;5027583;28;20072;-70
2022/08/08 10:04:25;;;;;;;3.03;1.67;;;;;;;;;;5019744;28;20125;-70
2022/08/08 10:06:52;;;;;;;2.28;1.65;;;;;;;;;;5014585;28;20103;-70
2022/08/08 10:09:33;;;;;;;3.88;1.58;;;;;;;;;;5013144;28;20066;-70
2022/08/08 10:12:06;;;;;;;2.30;1.40;;;;;;;;;;4998619;28;20065;-69
2022/08/08 10:14:34;;;;;;;2.45;1.75;;;;;;;;;;5000561;28;20040;-69
2022/08/08 10:17:05;;;;;;;2.28;1.67;;;27.60;99.90;;;;;;5003895;28;20132;-69
2022/08/08 10:19:39;;;;;;;1.63;1.45;;;27.50;99.90;;;;;;5005595;28;20042;-70
2022/08/08 10:22:07;;;;;;;2.33;1.70;;;27.40;1.00;;;;;;5010954;28;20046;-70
2022/08/08 10:24:44;;;;;;;2.17;1.63;;;27.60;1.00;;;;;;5008062;28;20073;-69
2022/08/08 10:27:11;;;;;;;3.88;1.80;;;;;;;;;;4996856;28;20129;-70
2022/08/08 10:29:54;;;;;;;2.20;1.40;;;27.50;1.00;;;;;;4996898;28;20096;-69
2022/08/08 10:32:35;;;;;;;2.03;1.60;;;27.50;1.00;;;;;;4997421;28;20041;-69
2022/08/08 10:35:03;;;;;;;;;;;28.50;1.00;;;;;;5021773;28;20400;-70
2022/08/08 10:37:40;;;;;;;2.88;1.70;;;27.90;1.00;;;;;;5015447;28;19960;-70
2022/08/08 10:40:15;;;;;;;3.30;1.48;;;27.70;1.00;;;;;;5002025;28;20042;-70
2022/08/08 10:42:41;;;;;;;2.25;1.65;;;27.80;1.00;;;;;;5001525;28;20034;-70
2022/08/08 10:45:09;;;;;;;1.55;1.42;;;;;;;;;;5005303;28;20038;-71
2022/08/08 10:47:36;;;;;;;3.95;1.40;;;27.90;1.00;;;;;;5004699;28;20116;-70
2022/08/08 10:50:08;;;;;;;2.42;2.00;;;;;;;;;;5006507;28;20455;-70
2022/08/08 10:52:36;;;;;;;2.47;1.60;;;;;;;;;;5015351;28;20492;-70
2022/08/08 10:55:03;;;;;;;3.75;1.80;;;;;;;;;;5014217;28;20038;-70
2022/08/08 10:57:30;;;;;;;3.33;2.00;;;27.80;1.00;;;;;;5015750;28;20092;-71
2022/08/08 10:59:58;;;;;;;1.80;1.70;;;28.00;1.00;;;;;;5009255;28;20096;-69
2022/08/08 11:02:32;;;;;;;2.55;1.40;;;28.10;1.00;;;;;;5015886;28;20038;-69
2022/08/08 11:05:00;;;;;;;2.90;1.70;;;28.20;1.00;;;;;;5018488;28;20513;-70
2022/08/08 11:07:26;;;;;;;3.25;1.55;;;28.40;1.00;;;;;;5015662;28;20100;-69
2022/08/08 11:09:52;;;;;;;1.70;1.60;;;28.30;1.00;;;;;;4997549;28;20440;-69
2022/08/08 11:12:18;;;;;;;1.98;1.52;;;28.40;1.00;;;;;;5015041;28;20088;-69
2022/08/08 11:14:55;;;;;;;2.70;1.70;;;28.20;1.00;;;;;;4994578;28;20072;-69
2022/08/08 11:17:24;;;;;;;2.35;1.60;;;;;;;;;;5012358;28;20069;-69
2022/08/08 11:19:53;;;;;;;3.95;1.60;;;28.10;1.00;;;;;;5005080;28;20052;-70
2022/08/08 11:22:23;;;;;;;3.05;1.60;;;;;;;;;;5016058;28;20041;-69
2022/08/08 11:24:50;;;;;;;2.78;1.70;;;;;;;;;;5014017;28;20030;-69
2022/08/08 11:27:17;;;;;;;2.60;1.40;;;;;;;;;;5014285;28;20108;-68
2022/08/08 11:29:44;;;;;;;3.20;1.40;;;;;;;;;;5014757;28;20034;-69
2022/08/08 11:32:13;;;;;;;5.57;1.65;;;;;;;;;;5014469;28;20034;-70
2022/08/08 11:34:40;;;;;;;1.38;1.27;;;;;;;;;;5014266;28;20033;-69
2022/08/08 11:37:06;;;;;;;1.63;1.52;;;;;;;;;;5003788;28;20042;-70
2022/08/08 11:39:33;;;;;;;6.35;1.50;;;;;;;;;;5007955;28;20037;-70
2022/08/08 11:42:00;;;;;;;6.00;1.52;;;;;;;;;;5014054;28;20068;-70
2022/08/08 11:44:27;;;;;;;3.45;1.58;;;;;;;;;;4995263;28;20065;-71
2022/08/08 11:46:56;;;;;;;2.47;1.75;;;;;;;;;;5005389;28;20057;-70
2022/08/08 11:49:24;;;;;;;5.78;1.63;;;;;;;;;;5012965;28;20062;-71
2022/08/08 11:51:52;;;;;;;1.98;1.40;;;28.30;1.00;;;;;;5010293;28;20109;-67
2022/08/08 11:54:30;;;;;;;1.80;1.65;;;;;;;;;;5010651;28;20053;-69
2022/08/08 11:57:08;;;;;;;5.53;1.67;;;;;;;;;;5015848;28;20046;-68
2022/08/08 11:59:37;;;;;;;2.50;1.40;;;;;;;;;;5014124;28;20046;-69
2022/08/08 12:02:04;;;;;;;6.50;1.75;;;;;;;;;;5013610;28;20096;-68
2022/08/08 12:04:31;;;;;;;2.60;2.15;;;;;;;;;;5013241;28;20427;-68
2022/08/08 12:07:04;;;;;;;3.13;1.40;;;29.30;1.00;;;;;;5013251;28;20053;-68
2022/08/08 12:09:30;;;;;;;1.80;1.55;;;;;;;;;;5007565;28;20041;-69
2022/08/08 12:11:57;;;;;;;1.80;1.40;;;;;;;;;;5011091;28;20045;-73
2022/08/08 12:14:24;;;;;;;4.70;1.80;;;;;;;;;;5012802;28;20037;-70
2022/08/08 12:16:52;;;;;;;2.05;1.67;;;;;;;;;;5014765;28;20049;-70
2022/08/08 12:19:20;;;;;;;2.20;1.73;;;;;;;;;;5012051;28;20049;-69
2022/08/08 12:21:47;;;;;;;2.25;1.77;;;;;;;;;;5012534;28;20084;-70
2022/08/08 12:24:18;;;;;;;3.45;1.60;;;;;;;;;;5012989;28;20038;-72
2022/08/08 12:26:48;;;;;;;2.92;1.65;;;;;;;;;;5013435;28;20058;-69
2022/08/08 12:29:22;;;;;;;3.70;1.73;;;29.50;1.00;;;;;;5012549;28;20128;-69
2022/08/08 12:32:07;;;;;;;1.55;1.40;;;29.70;1.00;;;;;;5013696;28;20535;-69
2022/08/08 12:34:37;;;;;;;2.42;1.42;;;29.50;1.00;;;;;;5012278;28;20041;-69
2022/08/08 12:37:11;;;;;;;1.50;1.40;;;29.70;1.00;;;;;;5014332;28;20049;-70
2022/08/08 12:39:38;;;;;;;3.25;1.48;;;;;;;;;;5013291;28;20041;-69
2022/08/08 12:42:04;;;;;;;1.85;1.40;;;;;;;;;;5013738;28;20034;-70
2022/08/08 12:44:32;;;;;;;2.97;1.60;;;;;;;;;;5014848;28;20045;-69
2022/08/08 12:46:59;;;;;;;2.33;1.45;;;;;;;;;;5014566;28;20531;-69
2022/08/08 12:49:29;;;;;;;1.50;1.33;;;;;;;;;;5015101;28;20069;-69
2022/08/08 12:51:56;;;;;;;2.05;1.50;;;;;;;;;;5015349;28;20146;-69
2022/08/08 12:54:24;;;;;;;2.47;1.30;;;;;;;;;;5014827;28;20052;-70
2022/08/08 12:56:51;;;;;;;2.38;1.60;;;;;;;;;;5014990;28;20045;-69
2022/08/08 12:59:18;;;;;;;1.55;1.45;;;;;;;;;;5018636;28;20115;-69
2022/08/08 13:02:19;;;;;;;1.80;1.50;;;30.00;1.00;;;;;;5018324;28;20034;-69
2022/08/08 13:04:45;;;;;;;;;;;;;;;;;;5019269;28;20128;-69
2022/08/08 13:07:13;;;;;;;1.58;1.33;;;;;;;;;;5017999;28;20367;-69
2022/08/08 13:09:46;;;;;;;5.15;1.55;;;;;;;;;;5018318;28;20049;-70
2022/08/08 13:12:32;;;;;;;2.20;1.50;;;;;;;;;;5018553;28;20034;-70
2022/08/08 13:15:01;;;;;;;1.92;1.38;;;;;;;;;;5018455;28;20095;-69
2022/08/08 13:17:29;;;;;;;2.55;1.58;;;;;;;;;;5018396;28;20452;-69
2022/08/08 13:19:56;;;;;;;1.75;1.55;;;;;;;;;;5018412;28;20124;-70
2022/08/08 13:22:23;;;;;;;4.07;1.30;;;;;;;;;;5018647;28;20042;-69
2022/08/08 13:24:50;;;;;;;1.67;1.50;;;;;;;;;;5017997;28;20038;-69
2022/08/08 13:27:18;;;;;;;2.97;1.58;;;;;;;;;;5018167;28;20049;-69
2022/08/08 13:29:50;;;;;;;3.00;1.67;;;;;;;;;;5017922;28;20077;-69
2022/08/08 13:32:17;;;;;;;1.60;1.50;;;;;;;;;;5018431;28;20103;-69
2022/08/08 13:34:43;;;;;;;1.55;1.30;;;30.00;1.00;;;;;;5018076;28;20038;-69
2022/08/08 13:37:10;;;;;;;1.70;1.20;;;;;;;;;;5018151;28;20037;-69
2022/08/08 13:39:36;;;;;;;2.90;1.50;;;30.20;1.00;;;;;;5017825;28;20046;-69
2022/08/08 13:42:03;;;;;;;1.98;1.50;;;;;;;;;;5018263;28;20045;-70
2022/08/08 13:44:30;;;;;;;2.20;1.40;;;;;;;;;;5017982;28;20082;-70
2022/08/08 13:47:00;;;;;;;1.55;1.38;;;30.60;1.00;;;;;;5017965;28;20080;-69
2022/08/08 13:49:29;;;;;;;1.77;1.52;;;30.50;1.00;;;;;;5017864;28;20058;-70
2022/08/08 13:51:55;;;;;;;1.33;1.23;;;30.50;1.00;;;;;;5017717;28;20088;-69
2022/08/08 13:54:23;;;;;;;1.58;1.40;;;30.30;1.00;;;;;;5017650;28;20107;-69
2022/08/08 13:57:09;;;;;;;2.60;1.42;;;30.10;1.00;;;;;;5018373;28;20088;-69
2022/08/08 13:59:41;;;;;;;3.42;1.50;;;30.20;1.00;;;;;;5017164;28;20392;-69
2022/08/08 14:02:23;;;;;;;3.65;1.30;;;30.60;1.00;;;;;;5017553;28;20034;-69
2022/08/08 14:04:59;;;;;;;1.50;1.40;;;30.40;1.00;;;;;;5017606;28;20045;-70
2022/08/08 14:07:28;;;;;;;3.00;1.30;;;30.60;1.00;;;;;;5017750;28;20132;-69
2022/08/08 14:10:10;;;;;;;3.10;1.40;;;30.40;1.00;;;;;;5016942;28;20380;-69
2022/08/08 14:12:38;;;;;;;5.30;1.65;;;30.50;1.00;;;;;;5017499;28;20070;-69
2022/08/08 14:15:07;;;;;;;2.08;1.65;;;;;;;;;;5017056;28;20551;-69
2022/08/08 14:17:35;;;;;;;2.72;1.52;;;;;;;;;;5017209;28;20038;-69
2022/08/08 14:20:06;;;;;;;1.40;1.15;;;;;;;;;;5017009;28;20110;-69
2022/08/08 14:22:36;;;;;;;3.95;2.25;;;;;;;;;;5017246;28;20029;-70
2022/08/08 14:25:04;;;;;;;5.10;1.27;;;30.30;1.00;;;;;;5016957;28;20042;-69
2022/08/08 14:27:40;;;;;;;1.42;1.33;;;30.60;1.00;;;;;;5016805;28;20046;-69
2022/08/08 14:30:13;;;;;;;2.00;1.30;;;30.70;1.00;;;;;;5017172;28;20041;-69
2022/08/08 14:33:06;;;;;;;1.30;1.20;;;;;;;;;;5017196;28;20034;-69
2022/08/08 14:35:32;;;;;;;2.00;1.42;;;30.80;1.00;;;;;;5013884;28;20072;-70
2022/08/08 14:38:04;;;;;;;2.53;2.03;;;30.80;1.00;;;;;;5017267;28;20520;-69
2022/08/08 14:40:31;;;;;;;3.90;1.15;;;;;;;;;;5016961;28;20042;-69
2022/08/08 14:43:00;;;;;;;4.53;1.38;;;30.80;1.00;;;;;;5016755;28;20085;-69
2022/08/08 14:45:27;;;;;;;1.65;1.30;;;;;;;;;;5016779;28;20052;-70
2022/08/08 14:47:59;;;;;;;1.58;1.38;;;;;;;;;;5016859;28;20116;-70
2022/08/08 14:50:30;;;;;;;4.00;1.65;;;;;;;;;;5016107;28;20033;-69
2022/08/08 14:52:56;;;;;;;2.17;1.35;;;;;;;;;;5016396;28;20129;-69